< < Back
Terminal Aerodrome Forecast


Current Version              Previous Versions:   1  2  3  4  5  6  7  8  9  

Terminal Aerodrome Forecast

250
FTUS42 KJAX 021120
TAFGNV
TAF
KGNV 021120Z 0212/0312 27007KT P6SM VCSH SCT025 SCT100 SCT250
     FM021500 27010KT P6SM VCTS BKN045CB BKN150 BKN250
      TEMPO 0215/0219 VRB15G30KT 3SM TSRA BR SCT025 BKN040CB OVC090
     FM022000 27007KT P6SM VCTS SCT020 BKN040CB OVC150
     FM030200 24004KT P6SM BKN150 BKN250=

Latest METAR

192
SAUS70 KWBC 021800 RRL
MTRGNV
METAR KGNV 021753Z 14006KT 10SM -RA FEW046 SCT075 BKN095 23/21 A3012 RMK
AO2 LTG DSNT NE-SE RAB1655E16B41 TSE07B09E32 SLP196 P0004
60004 T02330211 10333 20222 50002


USA.gov is the U.S. government's official web portal to all federal, state and local government web resources and services.